createdAt,value
2023-05-24T05:00:56.198Z,11.46
2023-05-24T05:01:56.156Z,11.39
2023-05-24T05:02:56.236Z,11.39
2023-05-24T05:03:56.113Z,11.43
2023-05-24T05:04:56.110Z,11.43
2023-05-24T05:05:56.081Z,11.44
2023-05-24T05:06:56.067Z,11.55
2023-05-24T05:07:56.074Z,11.47
2023-05-24T05:08:56.044Z,11.57
2023-05-24T05:09:56.034Z,11.57
2023-05-24T05:10:56.059Z,11.60
2023-05-24T05:12:01.029Z,11.55
2023-05-24T05:12:55.998Z,11.52
2023-05-24T05:13:55.991Z,11.55
2023-05-24T05:14:55.984Z,11.61
2023-05-24T05:15:55.987Z,11.54
2023-05-24T05:16:55.996Z,11.58
2023-05-24T05:17:55.958Z,11.65
2023-05-24T05:18:55.943Z,11.61
2023-05-24T05:19:55.947Z,11.62
2023-05-24T05:20:55.903Z,11.69
2023-05-24T05:21:55.901Z,11.76
2023-05-24T05:23:00.901Z,11.78
2023-05-24T05:23:55.876Z,11.82
2023-05-24T05:24:55.852Z,11.94
2023-05-24T05:25:55.843Z,11.98
2023-05-24T05:26:55.846Z,12.14
2023-05-24T05:27:55.844Z,12.47
2023-05-24T05:28:55.838Z,12.67
2023-05-24T05:29:55.802Z,12.72
2023-05-24T05:30:55.793Z,12.82
2023-05-24T05:31:55.788Z,12.71
2023-05-24T05:32:55.855Z,12.70
2023-05-24T05:34:00.816Z,12.90
2023-05-24T05:34:55.755Z,12.96
2023-05-24T05:35:55.731Z,13.07
2023-05-24T05:36:55.719Z,13.05
2023-05-24T05:37:55.716Z,13.26
2023-05-24T05:38:55.699Z,13.32
2023-05-24T05:39:55.706Z,13.07
2023-05-24T05:40:55.674Z,13.19
2023-05-24T05:41:55.668Z,13.12
2023-05-24T05:42:55.666Z,13.05
2023-05-24T05:43:55.646Z,13.10
2023-05-24T05:45:00.664Z,13.28
2023-05-24T05:45:55.692Z,13.07
2023-05-24T05:46:55.607Z,12.87
2023-05-24T05:47:55.690Z,12.68
2023-05-24T05:48:55.604Z,12.65
2023-05-24T05:49:55.575Z,12.59
2023-05-24T05:50:55.557Z,12.42
2023-05-24T05:51:55.573Z,12.23
2023-05-24T05:52:55.551Z,12.23
2023-05-24T05:53:55.532Z,12.24
2023-05-24T05:54:55.539Z,12.10
2023-05-24T05:56:00.542Z,12.12
2023-05-24T05:56:55.498Z,11.99
2023-05-24T05:57:55.494Z,11.98
2023-05-24T05:58:55.469Z,12.02
2023-05-24T05:59:55.512Z,11.90
2023-05-24T06:00:55.474Z,11.88
2023-05-24T06:01:55.480Z,11.83
2023-05-24T06:02:55.518Z,11.83
2023-05-24T06:03:55.528Z,11.85
2023-05-24T06:04:55.486Z,11.80
2023-05-24T06:05:55.400Z,11.76
2023-05-24T06:07:00.416Z,11.78
2023-05-24T06:07:55.364Z,11.83
2023-05-24T06:08:55.358Z,11.86
2023-05-24T06:09:55.362Z,11.96
2023-05-24T06:10:55.404Z,12.01
2023-05-24T06:11:55.342Z,12.01
2023-05-24T06:12:55.309Z,12.10
2023-05-24T06:13:55.297Z,12.14
2023-05-24T06:14:55.281Z,12.31
2023-05-24T06:15:55.332Z,12.45
2023-05-24T06:16:56.265Z,12.41
2023-05-24T06:18:00.327Z,12.57
2023-05-24T06:19:05.500Z,12.72
2023-05-24T06:19:55.266Z,12.85
2023-05-24T06:20:55.266Z,12.77
2023-05-24T06:21:55.228Z,12.74
2023-05-24T06:22:55.209Z,12.72
2023-05-24T06:23:55.188Z,12.64
2023-05-24T06:24:55.195Z,12.72
2023-05-24T06:25:55.158Z,12.74
2023-05-24T06:26:55.156Z,12.83
2023-05-24T06:27:55.156Z,12.87
2023-05-24T06:29:00.143Z,12.97
2023-05-24T06:29:55.213Z,13.11
2023-05-24T06:30:55.203Z,13.20
2023-05-24T06:31:55.126Z,13.32
2023-05-24T06:32:55.145Z,13.52
2023-05-24T06:34:03.781Z,13.87
2023-05-24T06:34:55.070Z,13.96
2023-05-24T06:35:55.048Z,14.36
2023-05-24T06:36:55.052Z,14.70
2023-05-24T06:37:55.038Z,15.17
2023-05-24T06:38:55.070Z,15.44
2023-05-24T06:40:00.101Z,15.57
2023-05-24T06:40:54.990Z,15.50
2023-05-24T06:41:54.976Z,15.29
2023-05-24T06:42:54.964Z,14.98
2023-05-24T06:43:55.003Z,14.75
2023-05-24T06:44:54.942Z,14.60
2023-05-24T06:45:54.956Z,14.46
2023-05-24T06:46:54.973Z,14.57
2023-05-24T06:47:54.968Z,14.51
2023-05-24T06:48:55.076Z,14.45
2023-05-24T06:49:54.892Z,14.43
2023-05-24T06:50:59.904Z,14.33
2023-05-24T06:51:55.250Z,14.28
2023-05-24T06:52:54.940Z,14.25
2023-05-24T06:53:54.922Z,14.24
2023-05-24T06:54:54.874Z,14.28
2023-05-24T06:55:56.924Z,14.15
2023-05-24T06:56:54.809Z,14.17
2023-05-24T06:57:54.864Z,13.99
2023-05-24T06:58:54.786Z,14.06
2023-05-24T06:59:54.776Z,14.02
2023-05-24T07:00:54.802Z,14.09
2023-05-24T07:02:01.994Z,14.17
2023-05-24T07:02:54.816Z,14.17
2023-05-24T07:03:54.756Z,14.12
2023-05-24T07:04:54.839Z,14.02
2023-05-24T07:05:54.704Z,14.02
2023-05-24T07:06:54.696Z,14.04
2023-05-24T07:07:54.697Z,13.95
2023-05-24T07:08:54.735Z,13.97
2023-05-24T07:09:54.691Z,13.96
2023-05-24T07:10:54.661Z,14.04
2023-05-24T07:11:54.655Z,13.95
2023-05-24T07:12:59.661Z,14.07
2023-05-24T07:13:54.612Z,14.02
2023-05-24T07:14:54.601Z,14.06
2023-05-24T07:15:54.606Z,14.10
2023-05-24T07:16:54.617Z,14.06
2023-05-24T07:17:54.603Z,14.18
2023-05-24T07:18:54.556Z,14.25
2023-05-24T07:19:54.571Z,14.28
2023-05-24T07:20:54.568Z,14.20
2023-05-24T07:21:54.642Z,14.18
2023-05-24T07:22:54.516Z,14.20
2023-05-24T07:23:59.583Z,14.20
2023-05-24T07:24:54.488Z,14.32
2023-05-24T07:25:54.482Z,14.43
2023-05-24T07:26:54.471Z,14.50
2023-05-24T07:27:54.470Z,14.55
2023-05-24T07:28:54.440Z,14.51
2023-05-24T07:29:54.437Z,14.54
2023-05-24T07:30:54.425Z,14.69
2023-05-24T07:31:54.523Z,14.50
2023-05-24T07:32:54.482Z,14.45
2023-05-24T07:33:54.401Z,14.37
2023-05-24T07:34:59.398Z,14.33
2023-05-24T07:35:54.389Z,14.21
2023-05-24T07:36:54.353Z,14.17
2023-05-24T07:37:54.341Z,13.96
2023-05-24T07:38:54.328Z,14.00
2023-05-24T07:39:54.399Z,14.12
2023-05-24T07:40:54.318Z,14.03
2023-05-24T07:41:54.337Z,14.09
2023-05-24T07:42:54.285Z,14.12
2023-05-24T07:43:54.277Z,14.20
2023-05-24T07:44:54.273Z,14.27
2023-05-24T07:45:59.373Z,14.14
2023-05-24T07:46:54.279Z,14.32
2023-05-24T07:47:56.704Z,14.28
2023-05-24T07:48:54.221Z,14.18
2023-05-24T07:49:54.224Z,14.17
2023-05-24T07:50:54.205Z,14.25
2023-05-24T07:51:54.195Z,14.33
2023-05-24T07:52:54.176Z,14.47
2023-05-24T07:53:54.171Z,14.39
2023-05-24T07:54:54.167Z,14.43
2023-05-24T07:55:54.186Z,14.42
2023-05-24T07:56:59.160Z,14.24
2023-05-24T07:57:54.150Z,14.21
2023-05-24T07:58:54.120Z,14.25
2023-05-24T07:59:54.138Z,14.22
2023-05-24T08:00:54.097Z,14.25
2023-05-24T08:01:54.080Z,14.33
2023-05-24T08:02:54.169Z,14.39
2023-05-24T08:03:54.151Z,14.51
2023-05-24T08:04:54.074Z,14.55
2023-05-24T08:05:54.034Z,14.52
2023-05-24T08:06:54.110Z,14.62
2023-05-24T08:07:59.033Z,14.69
2023-05-24T08:08:54.011Z,14.70
2023-05-24T08:09:53.986Z,14.62
2023-05-24T08:10:53.985Z,14.68
2023-05-24T08:11:54.075Z,14.51
2023-05-24T08:12:53.956Z,14.61
2023-05-24T08:13:53.958Z,14.62
2023-05-24T08:14:53.966Z,14.65
2023-05-24T08:15:53.986Z,14.70
2023-05-24T08:16:54.217Z,14.86
2023-05-24T08:17:53.957Z,14.91
2023-05-24T08:18:58.920Z,14.88
2023-05-24T08:19:53.903Z,14.99
2023-05-24T08:20:53.868Z,15.02
2023-05-24T08:21:53.850Z,15.10
2023-05-24T08:22:53.847Z,15.02
2023-05-24T08:23:53.850Z,15.11
2023-05-24T08:24:53.816Z,15.20
2023-05-24T08:25:53.803Z,15.16
2023-05-24T08:26:53.794Z,15.21
2023-05-24T08:27:53.826Z,15.20
2023-05-24T08:28:53.780Z,15.16
2023-05-24T08:29:58.814Z,15.14
2023-05-24T08:30:53.764Z,15.19
2023-05-24T08:31:53.778Z,15.20
2023-05-24T08:32:53.794Z,15.07
2023-05-24T08:33:53.715Z,15.03
2023-05-24T08:35:00.468Z,15.23
2023-05-24T08:35:53.713Z,15.20
2023-05-24T08:36:53.711Z,15.23
2023-05-24T08:37:53.688Z,15.23
2023-05-24T08:38:53.674Z,15.31
2023-05-24T08:39:53.643Z,15.29
2023-05-24T08:40:58.687Z,15.25
2023-05-24T08:42:07.936Z,15.34
2023-05-24T08:42:53.620Z,15.39
2023-05-24T08:43:53.653Z,15.28
2023-05-24T08:44:53.591Z,15.20
2023-05-24T08:45:53.596Z,15.21
2023-05-24T08:46:53.584Z,15.23
2023-05-24T08:47:53.672Z,15.31
2023-05-24T08:48:53.576Z,15.51
2023-05-24T08:49:53.536Z,15.64
2023-05-24T08:50:53.531Z,15.72
2023-05-24T08:51:58.539Z,15.74
2023-05-24T08:52:53.500Z,15.84
2023-05-24T08:53:53.507Z,15.71
2023-05-24T08:54:53.478Z,15.75
2023-05-24T08:55:53.477Z,15.87
2023-05-24T08:56:53.467Z,15.92
2023-05-24T08:57:53.446Z,16.02
2023-05-24T08:58:53.437Z,16.34
2023-05-24T08:59:53.456Z,16.23
2023-05-24T09:00:53.428Z,16.30
2023-05-24T09:01:53.447Z,16.28
2023-05-24T09:02:58.447Z,16.28
2023-05-24T09:03:53.430Z,16.30
2023-05-24T09:04:53.387Z,16.43
2023-05-24T09:05:53.372Z,16.46
2023-05-24T09:06:53.344Z,16.48
2023-05-24T09:07:53.329Z,16.52
2023-05-24T09:08:53.322Z,16.52
2023-05-24T09:09:53.341Z,16.50
2023-05-24T09:10:55.498Z,16.49
2023-05-24T09:11:53.306Z,16.43
2023-05-24T09:12:53.302Z,16.49
2023-05-24T09:13:58.290Z,16.49
2023-05-24T09:14:53.265Z,16.34
2023-05-24T09:15:53.880Z,16.33
2023-05-24T09:16:53.255Z,16.17
2023-05-24T09:17:53.246Z,16.23
2023-05-24T09:18:53.234Z,16.14
2023-05-24T09:19:53.250Z,16.25
2023-05-24T09:20:53.464Z,16.24
2023-05-24T09:21:53.184Z,16.33
2023-05-24T09:22:53.160Z,16.46
2023-05-24T09:23:53.163Z,16.61
2023-05-24T09:24:58.179Z,16.71
2023-05-24T09:25:53.130Z,16.83
2023-05-24T09:26:53.124Z,16.82
2023-05-24T09:27:53.149Z,16.83
2023-05-24T09:28:53.119Z,16.76
2023-05-24T09:29:53.097Z,16.75
2023-05-24T09:30:53.194Z,16.83
2023-05-24T09:31:53.177Z,16.83
2023-05-24T09:32:53.134Z,16.70
2023-05-24T09:33:53.039Z,16.75
2023-05-24T09:34:53.026Z,16.63
2023-05-24T09:35:58.036Z,16.52
2023-05-24T09:36:53.017Z,16.73
2023-05-24T09:37:52.998Z,16.73
2023-05-24T09:38:52.986Z,16.68
2023-05-24T09:39:52.964Z,16.79
2023-05-24T09:40:52.959Z,16.86
2023-05-24T09:41:52.940Z,17.01
2023-05-24T09:42:52.975Z,17.41
2023-05-24T09:43:52.920Z,17.56
2023-05-24T09:44:52.912Z,17.90
2023-05-24T09:45:52.908Z,18.26
2023-05-24T09:46:58.052Z,18.14
2023-05-24T09:47:52.922Z,18.08
2023-05-24T09:48:52.903Z,18.07
2023-05-24T09:49:52.854Z,17.77
2023-05-24T09:50:52.840Z,17.77
2023-05-24T09:51:52.940Z,17.56
2023-05-24T09:52:52.824Z,17.38
2023-05-24T09:53:52.810Z,17.06
2023-05-24T09:54:52.827Z,16.98
2023-05-24T09:55:52.790Z,16.97
2023-05-24T09:56:52.807Z,17.03
2023-05-24T09:57:57.785Z,17.08
2023-05-24T09:58:52.778Z,17.04
2023-05-24T09:59:52.743Z,17.04
2023-05-24T10:00:52.767Z,17.06
2023-05-24T10:01:52.776Z,16.94
2023-05-24T10:02:53.776Z,16.93
2023-05-24T10:03:52.904Z,16.79
2023-05-24T10:04:52.925Z,16.76
2023-05-24T10:05:52.683Z,16.76
2023-05-24T10:06:52.690Z,16.79
2023-05-24T10:07:52.662Z,16.73
2023-05-24T10:08:57.674Z,16.78
2023-05-24T10:09:52.628Z,16.56
2023-05-24T10:10:52.628Z,16.39
2023-05-24T10:11:52.611Z,16.38
2023-05-24T10:12:52.613Z,16.39
2023-05-24T10:13:52.579Z,16.30
2023-05-24T10:14:52.579Z,16.27
2023-05-24T10:15:52.586Z,16.02
2023-05-24T10:16:52.601Z,16.17
2023-05-24T10:17:52.590Z,16.09
2023-05-24T10:18:52.555Z,16.21
2023-05-24T10:19:57.594Z,16.11
2023-05-24T10:20:52.842Z,16.09
2023-05-24T10:21:52.554Z,16.04
2023-05-24T10:22:52.492Z,16.08
2023-05-24T10:23:52.473Z,16.08
2023-05-24T10:24:52.479Z,16.12
2023-05-24T10:25:52.457Z,16.17
2023-05-24T10:26:52.441Z,16.09
2023-05-24T10:27:52.427Z,16.25
2023-05-24T10:28:52.453Z,16.11
2023-05-24T10:29:52.414Z,16.12
2023-05-24T10:30:57.448Z,16.09
2023-05-24T10:31:52.385Z,16.25
2023-05-24T10:32:52.390Z,16.27
2023-05-24T10:33:52.688Z,16.25
2023-05-24T10:34:52.486Z,16.30
2023-05-24T10:35:52.334Z,16.33
2023-05-24T10:36:52.342Z,16.33
2023-05-24T10:37:52.319Z,16.39
2023-05-24T10:38:52.328Z,16.39
2023-05-24T10:39:52.297Z,16.46
2023-05-24T10:40:52.459Z,16.48
2023-05-24T10:41:57.283Z,16.52
2023-05-24T10:42:52.269Z,16.58
2023-05-24T10:44:07.992Z,16.67
2023-05-24T10:44:52.245Z,16.67
2023-05-24T10:45:52.305Z,16.71
2023-05-24T10:46:52.324Z,16.85
2023-05-24T10:47:52.202Z,16.96
2023-05-24T10:48:52.225Z,17.07
2023-05-24T10:49:52.192Z,17.01
2023-05-24T10:50:52.251Z,17.19
2023-05-24T10:51:52.151Z,17.16
2023-05-24T10:52:57.161Z,17.34
2023-05-24T10:53:52.131Z,17.26
2023-05-24T10:55:03.247Z,17.23
2023-05-24T10:55:52.149Z,17.23
2023-05-24T10:56:52.109Z,17.37
2023-05-24T10:57:52.154Z,17.38
2023-05-24T10:58:52.100Z,17.51
2023-05-24T10:59:52.061Z,17.48
2023-05-24T11:00:52.432Z,17.58
2023-05-24T11:01:52.121Z,17.51
2023-05-24T11:02:52.085Z,17.44
2023-05-24T11:03:57.045Z,17.38
2023-05-24T11:04:52.012Z,17.44
2023-05-24T11:05:52.220Z,17.40
2023-05-24T11:06:52.109Z,17.52
2023-05-24T11:07:51.980Z,17.78
2023-05-24T11:08:51.958Z,17.99
2023-05-24T11:09:51.946Z,18.26
2023-05-24T11:10:51.936Z,18.73
2023-05-24T11:11:51.939Z,19.28
2023-05-24T11:12:51.946Z,19.81
2023-05-24T11:13:51.903Z,20.20
2023-05-24T11:14:56.914Z,20.41
2023-05-24T11:15:51.913Z,20.55
2023-05-24T11:16:52.106Z,20.77
2023-05-24T11:17:51.893Z,20.97
2023-05-24T11:18:51.856Z,21.09
2023-05-24T11:19:51.905Z,21.22
2023-05-24T11:20:51.932Z,21.07
2023-05-24T11:21:51.828Z,21.43
2023-05-24T11:22:51.854Z,21.40
2023-05-24T11:23:51.796Z,21.12
2023-05-24T11:24:51.832Z,21.09
2023-05-24T11:25:56.788Z,20.61
2023-05-24T11:26:51.798Z,20.51
2023-05-24T11:27:51.830Z,20.88
2023-05-24T11:28:51.738Z,21.19
2023-05-24T11:29:51.726Z,21.49
2023-05-24T11:30:51.776Z,21.44
2023-05-24T11:31:51.758Z,21.59
2023-05-24T11:32:51.724Z,21.56
2023-05-24T11:33:51.681Z,21.82
2023-05-24T11:34:51.685Z,21.75
2023-05-24T11:35:51.673Z,21.64
2023-05-24T11:36:51.676Z,21.49
2023-05-24T11:37:51.643Z,21.44
2023-05-24T11:38:56.668Z,20.97
2023-05-24T11:39:51.616Z,20.82
2023-05-24T11:40:51.616Z,20.66
2023-05-24T11:41:51.590Z,20.38
2023-05-24T11:42:51.610Z,20.20
2023-05-24T11:43:51.582Z,20.26
2023-05-24T11:44:51.589Z,20.33
2023-05-24T11:45:51.595Z,20.05
2023-05-24T11:46:51.539Z,20.10
2023-05-24T11:47:51.569Z,20.24
2023-05-24T11:48:51.539Z,20.51
2023-05-24T11:49:56.534Z,20.70
2023-05-24T11:50:51.900Z,20.94
2023-05-24T11:51:51.505Z,21.19
2023-05-24T11:52:51.475Z,21.22
2023-05-24T11:53:53.121Z,21.42
2023-05-24T11:54:51.586Z,21.74
2023-05-24T11:55:51.481Z,21.42
2023-05-24T11:56:51.428Z,21.80
2023-05-24T11:57:51.417Z,22.10
2023-05-24T11:58:51.419Z,22.21
2023-05-24T11:59:51.400Z,22.42
2023-05-24T12:00:51.415Z,22.57
2023-05-24T12:01:51.374Z,22.73
2023-05-24T12:02:57.341Z,22.72
2023-05-24T12:03:51.543Z,22.88
2023-05-24T12:04:51.394Z,23.05
2023-05-24T12:05:51.333Z,23.00
2023-05-24T12:06:51.381Z,22.33
2023-05-24T12:07:51.312Z,22.64
2023-05-24T12:08:51.312Z,22.82
2023-05-24T12:09:51.286Z,23.15
2023-05-24T12:10:51.312Z,23.55
2023-05-24T12:11:51.304Z,23.68
2023-05-24T12:12:51.317Z,23.33
2023-05-24T12:13:56.275Z,23.22
2023-05-24T12:14:51.231Z,23.35
2023-05-24T12:15:53.286Z,23.46
2023-05-24T12:16:51.213Z,23.69
2023-05-24T12:17:51.248Z,23.32
2023-05-24T12:19:02.414Z,23.33
2023-05-24T12:19:51.218Z,23.46
2023-05-24T12:20:51.227Z,23.28
2023-05-24T12:21:53.413Z,23.43
2023-05-24T12:22:51.159Z,23.51
2023-05-24T12:23:51.136Z,23.46
2023-05-24T12:24:56.226Z,23.46
2023-05-24T12:25:51.118Z,23.55
2023-05-24T12:26:51.178Z,23.54
2023-05-24T12:27:54.178Z,23.17
2023-05-24T12:28:51.091Z,23.00
2023-05-24T12:29:51.069Z,22.46
2023-05-24T12:30:51.079Z,21.65
2023-05-24T12:31:51.090Z,20.88
2023-05-24T12:32:51.049Z,20.51
2023-05-24T12:33:53.583Z,20.28
2023-05-24T12:34:51.039Z,20.08
2023-05-24T12:35:56.027Z,19.84
2023-05-24T12:36:51.027Z,19.84
2023-05-24T12:37:50.999Z,19.80
2023-05-24T12:38:50.976Z,19.48
2023-05-24T12:39:53.087Z,19.25
2023-05-24T12:41:07.416Z,19.16
2023-05-24T12:41:51.951Z,19.06
2023-05-24T12:42:50.979Z,19.00
2023-05-24T12:43:50.927Z,19.02
2023-05-24T12:44:50.898Z,18.84
2023-05-24T12:45:53.526Z,18.72
2023-05-24T12:46:56.037Z,18.70
2023-05-24T12:47:50.940Z,18.65
2023-05-24T12:48:50.919Z,18.52
2023-05-24T12:49:50.863Z,18.51
2023-05-24T12:50:50.843Z,18.45
2023-05-24T12:51:50.835Z,18.54
2023-05-24T12:52:50.811Z,18.57
2023-05-24T12:53:50.800Z,18.60
2023-05-24T12:54:50.802Z,18.48
2023-05-24T12:55:50.796Z,18.44
2023-05-24T12:56:52.892Z,18.42
2023-05-24T12:57:50.760Z,18.36
2023-05-24T12:58:50.824Z,18.37
2023-05-24T12:59:55.756Z,18.27
2023-05-24T13:00:50.780Z,18.14
2023-05-24T13:01:50.725Z,17.96
2023-05-24T13:02:50.735Z,17.89
2023-05-24T13:03:50.693Z,17.81
2023-05-24T13:04:50.705Z,17.81
2023-05-24T13:05:50.767Z,17.90
2023-05-24T13:06:50.682Z,18.03
2023-05-24T13:07:50.649Z,18.08
2023-05-24T13:08:50.633Z,18.11
2023-05-24T13:09:50.630Z,18.14
2023-05-24T13:10:55.629Z,18.15
2023-05-24T13:11:50.594Z,18.18
2023-05-24T13:12:50.605Z,18.18
2023-05-24T13:13:50.583Z,18.23
2023-05-24T13:14:52.661Z,18.03
2023-05-24T13:15:50.556Z,18.07
2023-05-24T13:16:50.622Z,18.05
2023-05-24T13:17:50.654Z,17.99
2023-05-24T13:18:50.561Z,17.96
2023-05-24T13:19:50.557Z,17.95
2023-05-24T13:20:50.554Z,17.87
2023-05-24T13:21:55.521Z,17.90
2023-05-24T13:22:50.476Z,17.81
2023-05-24T13:23:50.475Z,17.95
2023-05-24T13:24:50.467Z,18.11
2023-05-24T13:25:50.439Z,18.07
2023-05-24T13:26:53.001Z,18.12
2023-05-24T13:27:50.429Z,18.07
2023-05-24T13:29:21.685Z,18.14
2023-05-24T13:30:00.905Z,18.17
2023-05-24T13:30:50.470Z,18.18
2023-05-24T13:31:50.476Z,18.17
2023-05-24T13:32:55.468Z,18.21
2023-05-24T13:33:50.362Z,18.27
2023-05-24T13:34:50.344Z,18.35
2023-05-24T13:35:50.330Z,18.33
2023-05-24T13:36:50.334Z,18.41
2023-05-24T13:37:50.315Z,18.39
2023-05-24T13:38:56.629Z,18.35
2023-05-24T13:39:50.307Z,18.23
2023-05-24T13:40:50.267Z,18.03
2023-05-24T13:41:50.314Z,18.03
2023-05-24T13:42:50.280Z,18.15
2023-05-24T13:43:55.260Z,18.14
2023-05-24T13:44:50.227Z,18.17
2023-05-24T13:45:50.226Z,18.25
2023-05-24T13:46:50.269Z,18.33
2023-05-24T13:47:50.245Z,18.30
2023-05-24T13:48:50.215Z,18.17
2023-05-24T13:49:50.170Z,18.18
2023-05-24T13:50:50.166Z,18.21
2023-05-24T13:51:50.160Z,18.07
2023-05-24T13:52:50.146Z,18.17
2023-05-24T13:53:50.133Z,18.17
2023-05-24T13:54:55.187Z,18.18
2023-05-24T13:55:50.103Z,18.18
2023-05-24T13:56:50.117Z,18.12
2023-05-24T13:57:52.061Z,18.03
2023-05-24T13:58:50.091Z,18.05
2023-05-24T13:59:50.056Z,18.05
2023-05-24T14:00:50.076Z,18.17
2023-05-24T14:01:50.134Z,18.27
2023-05-24T14:02:50.277Z,18.21
2023-05-24T14:03:50.036Z,18.27
2023-05-24T14:04:50.014Z,18.26
2023-05-24T14:05:55.131Z,18.21
2023-05-24T14:06:50.009Z,17.96
2023-05-24T14:07:50.003Z,18.00
2023-05-24T14:08:49.959Z,18.12
2023-05-24T14:09:49.957Z,18.17
2023-05-24T14:10:49.991Z,18.21
2023-05-24T14:11:49.921Z,18.17
2023-05-24T14:13:03.427Z,18.17
2023-05-24T14:15:50.157Z,18.18
2023-05-24T14:16:54.981Z,18.23
2023-05-24T14:17:49.897Z,18.25
2023-05-24T14:18:49.874Z,18.23
2023-05-24T14:19:49.896Z,18.26
2023-05-24T14:20:49.827Z,18.27
2023-05-24T14:21:49.825Z,18.30
2023-05-24T14:22:49.815Z,18.35
2023-05-24T14:23:49.802Z,18.33
2023-05-24T14:24:49.831Z,18.27
2023-05-24T14:25:49.786Z,18.26
2023-05-24T14:26:49.757Z,18.23
2023-05-24T14:27:54.766Z,18.11
2023-05-24T14:28:49.736Z,18.11
2023-05-24T14:29:49.731Z,18.03
2023-05-24T14:30:49.719Z,18.15
2023-05-24T14:31:49.918Z,18.11
2023-05-24T14:32:49.746Z,18.08
2023-05-24T14:33:49.692Z,18.07
2023-05-24T14:34:49.706Z,17.97
2023-05-24T14:35:49.656Z,18.10
2023-05-24T14:36:49.647Z,17.89
2023-05-24T14:37:49.631Z,17.89
2023-05-24T14:38:54.655Z,17.97
2023-05-24T14:39:49.634Z,18.00
2023-05-24T14:40:49.632Z,17.96
2023-05-24T14:41:49.584Z,17.86
2023-05-24T14:42:49.606Z,17.81
2023-05-24T14:43:49.573Z,17.71
2023-05-24T14:44:49.552Z,17.81
2023-05-24T14:45:49.628Z,17.89
2023-05-24T14:46:49.542Z,17.84
2023-05-24T14:47:49.545Z,17.86
2023-05-24T14:48:49.522Z,17.75
2023-05-24T14:49:54.543Z,17.74
2023-05-24T14:50:49.485Z,17.87
2023-05-24T14:51:49.472Z,17.89
2023-05-24T14:52:49.471Z,18.02
2023-05-24T14:53:49.461Z,18.05
2023-05-24T14:54:49.446Z,17.97
2023-05-24T14:55:49.433Z,17.82
2023-05-24T14:56:49.418Z,17.68
2023-05-24T14:57:49.433Z,17.70
2023-05-24T14:58:49.394Z,17.63
2023-05-24T14:59:49.397Z,17.55
2023-05-24T15:00:54.441Z,17.58
2023-05-24T15:01:49.628Z,17.56
2023-05-24T15:02:49.454Z,17.66
2023-05-24T15:03:49.389Z,17.59
2023-05-24T15:04:49.344Z,17.66
2023-05-24T15:05:49.346Z,17.62
2023-05-24T15:06:49.324Z,17.55
2023-05-24T15:07:49.315Z,17.52
2023-05-24T15:08:49.281Z,17.46
2023-05-24T15:09:49.281Z,17.48
2023-05-24T15:10:49.288Z,17.46
2023-05-24T15:11:54.280Z,17.46
2023-05-24T15:12:49.268Z,17.43
2023-05-24T15:13:49.225Z,17.38
2023-05-24T15:14:49.213Z,17.37
2023-05-24T15:15:49.215Z,17.34
2023-05-24T15:16:49.279Z,17.43
2023-05-24T15:17:49.253Z,17.49
2023-05-24T15:18:49.190Z,17.44
2023-05-24T15:19:49.195Z,17.46
2023-05-24T15:20:49.395Z,17.44
2023-05-24T15:21:49.168Z,17.41
2023-05-24T15:22:54.153Z,17.37
2023-05-24T15:23:49.116Z,17.31
2023-05-24T15:24:49.119Z,17.33
2023-05-24T15:25:49.102Z,17.21
2023-05-24T15:26:49.086Z,17.22
2023-05-24T15:27:49.083Z,17.19
2023-05-24T15:28:49.065Z,17.21
2023-05-24T15:29:49.052Z,17.23
2023-05-24T15:30:49.114Z,17.19
2023-05-24T15:31:49.096Z,17.31
2023-05-24T15:32:49.126Z,17.33
2023-05-24T15:33:54.027Z,17.40
2023-05-24T15:34:48.992Z,17.49
2023-05-24T15:35:48.994Z,17.54
2023-05-24T15:36:49.076Z,17.52
2023-05-24T15:37:49.002Z,17.58
2023-05-24T15:38:48.951Z,17.56
2023-05-24T15:39:48.938Z,17.56
2023-05-24T15:40:48.935Z,17.52
2023-05-24T15:41:48.912Z,17.49
2023-05-24T15:42:48.908Z,17.46
2023-05-24T15:43:48.888Z,17.37
2023-05-24T15:44:53.935Z,17.31
2023-05-24T15:45:48.890Z,17.38
2023-05-24T15:46:48.879Z,17.41
2023-05-24T15:47:48.873Z,17.36
2023-05-24T15:48:48.859Z,17.30
2023-05-24T15:49:48.837Z,17.25
2023-05-24T15:51:25.481Z,17.30
2023-05-24T15:52:03.488Z,17.30
2023-05-24T15:52:48.792Z,17.23
2023-05-24T15:53:48.804Z,17.19
2023-05-24T15:54:48.795Z,17.21
2023-05-24T15:55:53.783Z,17.19
2023-05-24T15:56:48.746Z,17.38
2023-05-24T15:57:48.731Z,17.28
2023-05-24T15:58:48.736Z,17.16
2023-05-24T15:59:48.719Z,17.11
2023-05-24T16:00:48.708Z,17.18
2023-05-24T16:01:48.749Z,17.15
2023-05-24T16:02:48.763Z,17.08
2023-05-24T16:03:48.837Z,17.16
2023-05-24T16:04:48.650Z,17.14
2023-05-24T16:05:48.638Z,17.12
2023-05-24T16:06:53.678Z,17.06
2023-05-24T16:07:48.617Z,17.14
2023-05-24T16:08:48.607Z,17.08
2023-05-24T16:09:48.657Z,17.04
2023-05-24T16:10:48.580Z,17.08
2023-05-24T16:11:48.589Z,17.11
2023-05-24T16:12:48.582Z,17.01
2023-05-24T16:13:48.566Z,17.01
2023-05-24T16:14:48.530Z,17.03
2023-05-24T16:15:48.527Z,17.00
2023-05-24T16:16:48.517Z,16.93
2023-05-24T16:17:53.573Z,16.98
2023-05-24T16:18:48.493Z,16.98
2023-05-24T16:19:48.478Z,16.98
2023-05-24T16:20:48.586Z,16.96
2023-05-24T16:21:48.503Z,17.00
2023-05-24T16:22:48.480Z,17.11
2023-05-24T16:23:48.442Z,17.14
2023-05-24T16:24:48.430Z,17.00
2023-05-24T16:25:48.430Z,17.03
2023-05-24T16:26:48.428Z,16.98
2023-05-24T16:27:48.390Z,16.96
2023-05-24T16:28:53.402Z,17.00
2023-05-24T16:29:48.362Z,16.94
2023-05-24T16:30:48.368Z,16.97
2023-05-24T16:31:48.445Z,16.94
2023-05-24T16:32:48.385Z,16.89
2023-05-24T16:33:48.320Z,16.91
2023-05-24T16:34:56.640Z,16.97
2023-05-24T16:35:48.297Z,16.91
2023-05-24T16:36:48.327Z,16.88
2023-05-24T16:37:48.272Z,16.85
2023-05-24T16:38:48.264Z,16.85
2023-05-24T16:39:53.280Z,16.79
2023-05-24T16:40:48.261Z,16.76
2023-05-24T16:41:48.268Z,16.83
2023-05-24T16:42:48.234Z,16.76
2023-05-24T16:43:48.214Z,16.79
2023-05-24T16:44:48.198Z,16.79
2023-05-24T16:45:48.207Z,16.79
2023-05-24T16:46:48.277Z,16.83
2023-05-24T16:47:48.326Z,16.75
2023-05-24T16:48:48.195Z,16.76
2023-05-24T16:49:48.136Z,16.82
2023-05-24T16:50:53.164Z,16.79
2023-05-24T16:51:48.146Z,16.82
2023-05-24T16:52:48.103Z,16.81
2023-05-24T16:53:48.101Z,16.71
2023-05-24T16:54:48.115Z,16.71
2023-05-24T16:55:48.088Z,16.78
2023-05-24T16:56:48.070Z,16.73
2023-05-24T16:57:48.160Z,16.76
2023-05-24T16:58:48.065Z,16.75
2023-05-24T16:59:50.623Z,16.75
2023-05-24T17:00:48.545Z,16.73
2023-05-24T17:01:53.513Z,16.78
2023-05-24T17:02:48.067Z,16.78
2023-05-24T17:03:48.104Z,16.75
2023-05-24T17:04:47.997Z,16.75
2023-05-24T17:05:47.957Z,16.85
2023-05-24T17:06:47.964Z,16.82
2023-05-24T17:07:47.954Z,16.81
2023-05-24T17:08:47.926Z,16.85
2023-05-24T17:09:47.921Z,16.88
2023-05-24T17:10:47.907Z,16.82
2023-05-24T17:11:50.048Z,16.89
2023-05-24T17:12:52.932Z,16.86
2023-05-24T17:13:47.873Z,16.81
2023-05-24T17:14:47.871Z,16.73
2023-05-24T17:15:47.929Z,16.71
2023-05-24T17:16:47.835Z,16.81
2023-05-24T17:17:47.846Z,16.82
2023-05-24T17:18:47.836Z,16.85
2023-05-24T17:19:47.798Z,16.73
2023-05-24T17:20:48.110Z,16.83
2023-05-24T17:21:47.781Z,16.76
2023-05-24T17:22:47.768Z,16.81
2023-05-24T17:23:52.805Z,16.75
2023-05-24T17:24:47.789Z,16.79
2023-05-24T17:25:47.731Z,16.94
2023-05-24T17:26:47.739Z,16.73
2023-05-24T17:27:47.734Z,16.75
2023-05-24T17:28:47.741Z,16.70
2023-05-24T17:29:47.692Z,16.71
2023-05-24T17:30:47.702Z,16.70
2023-05-24T17:31:47.746Z,16.75
2023-05-24T17:32:47.691Z,16.66
2023-05-24T17:33:47.647Z,16.75
2023-05-24T17:34:52.689Z,16.58
2023-05-24T17:35:47.619Z,16.60
2023-05-24T17:36:47.647Z,16.60
2023-05-24T17:37:47.603Z,16.52
2023-05-24T17:38:47.580Z,16.50
2023-05-24T17:39:47.571Z,16.48
2023-05-24T17:40:47.591Z,16.52
2023-05-24T17:41:47.572Z,16.43
2023-05-24T17:42:47.569Z,16.45
2023-05-24T17:43:47.521Z,16.50
2023-05-24T17:44:47.543Z,16.53
2023-05-24T17:45:52.565Z,16.49
2023-05-24T17:46:47.551Z,16.50
2023-05-24T17:47:47.561Z,16.34
2023-05-24T17:48:47.493Z,16.52
2023-05-24T17:49:47.451Z,16.50
2023-05-24T17:50:47.445Z,16.50
2023-05-24T17:51:47.501Z,16.52
2023-05-24T17:52:47.435Z,16.53
2023-05-24T17:53:47.407Z,16.56
2023-05-24T17:54:47.412Z,16.52